Newark, NY (14513)

12:25 AM EDT on July 08, 2015 (GMT -0400)
Bell Rd. | | Change Station
CLOSE
Current Station
Personal Weather Station
Location: Newark, NY
Elevation: 535 ft
Nearby Weather Stations

Elev 535 ft 43.01 °N, 77.12 °W | Updated 5 minutes ago

Overcast
Overcast
69.8 °F
Feels Like 69.8 °F
N
1.0
Wind Variable Wind from SE
Gusts 1.0 mph

Today
High -- | Low -- °F
--% Chance of Precip.
Yesterday
High -- | Low -- °F
Precip. -- in
5:36 AM 8:49 PM
Waning Gibbous, 58% visible
Pressure 29.88 in
Visibility 10.0 miles
Clouds Scattered Clouds 4500 ft
Mostly Cloudy 10000 ft
Overcast 13000 ft
Dew Point 69 °F
Humidity 97%
Rainfall 0.00 in
Snow Depth Not available.
UV 0 out of 12
Pollen 3.80 out of 12
Air Quality Not available.
Flu Activity Not available.
METAR KROC 080354Z 23007KT 10SM SCT045 BKN100 OVC130 22/21 A2989 RMK AO2 SLP118 T02170206

More Conditions Fewer Conditions

Pressure 29.88 in
Visibility 10.0 miles
Clouds Scattered Clouds 4500 ft
Mostly Cloudy 10000 ft
Overcast 13000 ft
Dew Point 69 °F
Humidity 97%
Rainfall 0.00 in
Snow Depth Not available.
UV 0 out of 12
Pollen 3.80 out of 12
Air Quality Not available.
Flu Activity Not available.
METAR KROC 080354Z 23007KT 10SM SCT045 BKN100 OVC130 22/21 A2989 RMK AO2 SLP118 T02170206

More Conditions Fewer Conditions

10-Day Weather Forecast

×

Almanac

Astronomy

Jul. 08, 2015 Rise Set
Actual Time
Civil Twilight
Nautical Twilight
Astronomical Twilight
Moon
Length of Visible Light
Length of Day
Tomorrow will be .
, % of the Moon is Illuminated

Today's Extremes

State Highs State Lows

Community

WunderPhotos

Upload Photos

1,836,050 photos uploaded!

WunderBlogs® & News

Nearby

Air Quality

  Air Quality AQ Index Pollutant
Not available.

Snow Depth

Station Depth Elevation

Earthquake Activity

City Distance Mag. Time & Date
Minimum magnitude displayed is 2.5.

Coastal Water Temperatures

Place Temperature

Stations

Nearby Weather Stations

Station Location Temp. Windchill Dew Point Humidity Wind Precip. Elev Updated Type